Sirios Cement IV — 9HQE8 — position and weather

sailwx.info

Track history (hours):
 
Tides and Currents Weather Stations Pressure Air Temp Water Temp Dewpoint Dewpoint Depression Visibility Wind Speed Wind Dir Waves Ship Positions

Sirios Cement IV

Last reported at 2016-Nov-30 12:33 UTC. Time now 2016-Dec-03 02:28 UTC.
Position N 34°28' E 032°39'.

Length 134 m; draft 5.8 m.

Type: Cargo ship. MMSI: 256278000.

Date/timePositionNaut miles runAvg speedWind from/ knotsBaromVisibWave heightAir tempDewpointWater temp
2016-Nov-30 12:33N 34°28' E 032°39'10 9.7
2016-Nov-30 11:33N 34°22' E 032°48'13110.1
2016-Nov-29 22:33N 32°58' E 034°50'1111.0
2016-Nov-29 21:33N 32°51' E 034°60'3 3.3
2016-Nov-29 20:32N 32°49' E 035°02'0 0.0
2016-Nov-29 19:33N 32°49' E 035°02'0 0.0
2016-Nov-29 18:33N 32°49' E 035°02'0 0.0
2016-Nov-29 15:33N 32°49' E 035°02'0 0.0
2016-Nov-29 14:33N 32°49' E 035°02'0 0.0
2016-Nov-29 13:33N 32°49' E 035°02'0 0.0
2016-Nov-29 12:33N 32°49' E 035°02'0 0.0
2016-Nov-29 11:33N 32°49' E 035°02'0 0.0
2016-Nov-29 10:33N 32°49' E 035°02'0 0.0
2016-Nov-29 09:33N 32°49' E 035°02'0 0.0
2016-Nov-29 08:33N 32°49' E 035°02'0 0.0
2016-Nov-29 07:33N 32°49' E 035°02'0 0.0
2016-Nov-29 06:33N 32°49' E 035°02'0 0.0
2016-Nov-29 05:33N 32°49' E 035°02'0 0.0
2016-Nov-29 04:33N 32°49' E 035°02'0 0.0
2016-Nov-29 03:33N 32°49' E 035°02'0 0.0
2016-Nov-29 02:33N 32°49' E 035°02'0 0.0
2016-Nov-29 01:33N 32°49' E 035°02'0 0.0
2016-Nov-29 00:30N 32°49' E 035°02'0 0.0
2016-Nov-28 23:33N 32°49' E 035°02'0 0.0
2016-Nov-28 22:33N 32°49' E 035°02'0 0.0
2016-Nov-28 21:33N 32°49' E 035°02'0 0.0
2016-Nov-28 20:33N 32°49' E 035°02'0 0.0
2016-Nov-28 19:33N 32°49' E 035°02'0 0.0
2016-Nov-28 18:33N 32°49' E 035°02'0 0.0
2016-Nov-28 17:33N 32°49' E 035°02'0 0.0
2016-Nov-28 16:33N 32°49' E 035°02'0 0.0
2016-Nov-28 15:33N 32°49' E 035°02'0 0.0
2016-Nov-28 14:33N 32°49' E 035°02'0 0.0
2016-Nov-28 13:33N 32°49' E 035°02'0 0.0
2016-Nov-28 12:30N 32°49' E 035°02'0 0.0
2016-Nov-28 11:30N 32°49' E 035°02'0 0.0
2016-Nov-28 10:33N 32°49' E 035°02'0 0.0
2016-Nov-28 09:33N 32°49' E 035°02'0 0.0
2016-Nov-28 08:33N 32°49' E 035°02'0 0.0
2016-Nov-28 07:33N 32°49' E 035°02'0 0.0
2016-Nov-28 06:33N 32°49' E 035°02'0 0.0
2016-Nov-28 05:33N 32°49' E 035°02'0 0.0
2016-Nov-28 04:33N 32°49' E 035°02'0 0.0
2016-Nov-28 03:33N 32°49' E 035°02'0 0.0
2016-Nov-28 02:33N 32°49' E 035°02'0 0.0
2016-Nov-28 01:33N 32°49' E 035°02'0 0.0
2016-Nov-28 00:33N 32°49' E 035°02'0 0.0
2016-Nov-27 23:33N 32°49' E 035°02'0 0.0
2016-Nov-27 22:33N 32°49' E 035°02'0 0.0
2016-Nov-27 21:33N 32°49' E 035°02'0 0.0
2016-Nov-27 20:33N 32°49' E 035°02'0 0.0
2016-Nov-27 19:30N 32°49' E 035°02'0 0.0
2016-Nov-27 18:33N 32°49' E 035°02'0 0.0
2016-Nov-27 17:33N 32°49' E 035°02'0 0.0
2016-Nov-27 16:33N 32°49' E 035°02'0 0.0
2016-Nov-27 15:33N 32°49' E 035°02'0 0.0
2016-Nov-27 14:33N 32°49' E 035°02'0 0.0
2016-Nov-27 13:33N 32°49' E 035°02'0 0.0
2016-Nov-27 12:33N 32°49' E 035°02'0 0.0
2016-Nov-27 11:33N 32°49' E 035°02'0 0.0
2016-Nov-27 10:33N 32°49' E 035°02'0 0.0
2016-Nov-27 09:33N 32°49' E 035°02'0 0.0
2016-Nov-27 08:33N 32°49' E 035°02'2 1.7
2016-Nov-27 07:33N 32°50' E 035°01'2 2.2
2016-Nov-27 06:33N 32°52' E 034°60'0 0.0
2016-Nov-27 05:33N 32°52' E 034°60'0 0.0
2016-Nov-27 04:34N 32°52' E 034°60'0 0.0
2016-Nov-27 01:18N 32°52' E 034°60'0 0.0
2016-Nov-27 00:33N 32°52' E 034°60'0 0.0
2016-Nov-26 23:33N 32°52' E 034°60'0 0.0
2016-Nov-26 22:34N 32°52' E 034°60'4 4.3
2016-Nov-26 21:33N 32°54' E 034°55'10 9.6
2016-Nov-26 20:33N 32°59' E 034°45'506 9.9
2016-Nov-24 17:29N 37°14' E 025°51'2010.5
2016-Nov-24 15:33N 37°30' E 025°35'1110.8
2016-Nov-24 14:33N 37°38' E 025°26'  
2016-Nov-21 04:24N 37°53' E 025°09'2110.1
2016-Nov-21 02:21N 37°38' E 025°26'2110.3
2016-Nov-21 00:16N 37°21' E 025°44'  
Track history (hours):
 
Tides and Currents Weather Stations Pressure Air Temp Water Temp Dewpoint Dewpoint Depression Visibility Wind Speed Wind Dir Waves Ship Positions

Sirios Cement IV

Last reported at 2016-Nov-30 12:33 UTC. Time now 2016-Dec-03 02:28 UTC.
Position N 34°28' E 032°39'.

Length 134 m; draft 5.8 m.

Type: Cargo ship. MMSI: 256278000.

Date/timePositionNaut miles runAvg speedWind from/ knotsBaromVisibWave heightAir tempDewpointWater temp
2016-Nov-30 12:33N 34°28' E 032°39'10 9.7
2016-Nov-30 11:33N 34°22' E 032°48'13110.1
2016-Nov-29 22:33N 32°58' E 034°50'1111.0
2016-Nov-29 21:33N 32°51' E 034°60'3 3.3
2016-Nov-29 20:32N 32°49' E 035°02'0 0.0
2016-Nov-29 19:33N 32°49' E 035°02'0 0.0
2016-Nov-29 18:33N 32°49' E 035°02'0 0.0
2016-Nov-29 15:33N 32°49' E 035°02'0 0.0
2016-Nov-29 14:33N 32°49' E 035°02'0 0.0
2016-Nov-29 13:33N 32°49' E 035°02'0 0.0
2016-Nov-29 12:33N 32°49' E 035°02'0 0.0
2016-Nov-29 11:33N 32°49' E 035°02'0 0.0
2016-Nov-29 10:33N 32°49' E 035°02'0 0.0
2016-Nov-29 09:33N 32°49' E 035°02'0 0.0
2016-Nov-29 08:33N 32°49' E 035°02'0 0.0
2016-Nov-29 07:33N 32°49' E 035°02'0 0.0
2016-Nov-29 06:33N 32°49' E 035°02'0 0.0
2016-Nov-29 05:33N 32°49' E 035°02'0 0.0
2016-Nov-29 04:33N 32°49' E 035°02'0 0.0
2016-Nov-29 03:33N 32°49' E 035°02'0 0.0
2016-Nov-29 02:33N 32°49' E 035°02'0 0.0
2016-Nov-29 01:33N 32°49' E 035°02'0 0.0
2016-Nov-29 00:30N 32°49' E 035°02'0 0.0
2016-Nov-28 23:33N 32°49' E 035°02'0 0.0
2016-Nov-28 22:33N 32°49' E 035°02'0 0.0
2016-Nov-28 21:33N 32°49' E 035°02'0 0.0
2016-Nov-28 20:33N 32°49' E 035°02'0 0.0
2016-Nov-28 19:33N 32°49' E 035°02'0 0.0
2016-Nov-28 18:33N 32°49' E 035°02'0 0.0
2016-Nov-28 17:33N 32°49' E 035°02'0 0.0
2016-Nov-28 16:33N 32°49' E 035°02'0 0.0
2016-Nov-28 15:33N 32°49' E 035°02'0 0.0
2016-Nov-28 14:33N 32°49' E 035°02'0 0.0
2016-Nov-28 13:33N 32°49' E 035°02'0 0.0
2016-Nov-28 12:30N 32°49' E 035°02'0 0.0
2016-Nov-28 11:30N 32°49' E 035°02'0 0.0
2016-Nov-28 10:33N 32°49' E 035°02'0 0.0
2016-Nov-28 09:33N 32°49' E 035°02'0 0.0
2016-Nov-28 08:33N 32°49' E 035°02'0 0.0
2016-Nov-28 07:33N 32°49' E 035°02'0 0.0
2016-Nov-28 06:33N 32°49' E 035°02'0 0.0
2016-Nov-28 05:33N 32°49' E 035°02'0 0.0
2016-Nov-28 04:33N 32°49' E 035°02'0 0.0
2016-Nov-28 03:33N 32°49' E 035°02'0 0.0
2016-Nov-28 02:33N 32°49' E 035°02'0 0.0
2016-Nov-28 01:33N 32°49' E 035°02'0 0.0
2016-Nov-28 00:33N 32°49' E 035°02'0 0.0
2016-Nov-27 23:33N 32°49' E 035°02'0 0.0
2016-Nov-27 22:33N 32°49' E 035°02'0 0.0
2016-Nov-27 21:33N 32°49' E 035°02'0 0.0
2016-Nov-27 20:33N 32°49' E 035°02'0 0.0
2016-Nov-27 19:30N 32°49' E 035°02'0 0.0
2016-Nov-27 18:33N 32°49' E 035°02'0 0.0
2016-Nov-27 17:33N 32°49' E 035°02'0 0.0
2016-Nov-27 16:33N 32°49' E 035°02'0 0.0
2016-Nov-27 15:33N 32°49' E 035°02'0 0.0
2016-Nov-27 14:33N 32°49' E 035°02'0 0.0
2016-Nov-27 13:33N 32°49' E 035°02'0 0.0
2016-Nov-27 12:33N 32°49' E 035°02'0 0.0
2016-Nov-27 11:33N 32°49' E 035°02'0 0.0
2016-Nov-27 10:33N 32°49' E 035°02'0 0.0
2016-Nov-27 09:33N 32°49' E 035°02'0 0.0
2016-Nov-27 08:33N 32°49' E 035°02'2 1.7
2016-Nov-27 07:33N 32°50' E 035°01'2 2.2
2016-Nov-27 06:33N 32°52' E 034°60'0 0.0
2016-Nov-27 05:33N 32°52' E 034°60'0 0.0
2016-Nov-27 04:34N 32°52' E 034°60'0 0.0
2016-Nov-27 01:18N 32°52' E 034°60'0 0.0
2016-Nov-27 00:33N 32°52' E 034°60'0 0.0
2016-Nov-26 23:33N 32°52' E 034°60'0 0.0
2016-Nov-26 22:34N 32°52' E 034°60'4 4.3
2016-Nov-26 21:33N 32°54' E 034°55'10 9.6
2016-Nov-26 20:33N 32°59' E 034°45'506 9.9
2016-Nov-24 17:29N 37°14' E 025°51'2010.5
2016-Nov-24 15:33N 37°30' E 025°35'1110.8
2016-Nov-24 14:33N 37°38' E 025°26'  
2016-Nov-21 04:24N 37°53' E 025°09'2110.1
2016-Nov-21 02:21N 37°38' E 025°26'2110.3
2016-Nov-21 00:16N 37°21' E 025°44'  

Dump ship's entire track history